Ride Results

Blackbutt (30-05-2015)
Ride distance: 80.0 km

Outcomes - Blackbutt (30-05-2015)
Division No. of Entries Retired / DNE Completed Withdrawn Ineligible V/O Percentage Completed
HW 11 - 8 1 - 2 72.73%
MW 18 - 11 1 - 6 61.11%
LW 14 - 12 - - 2 85.71%
JN 7 - 5 - - 2 71.43%
Totals 50 - 36 2 - 12 72.00%
Results - Blackbutt (30-05-2015)
No. Rider Horse Place Time Leg Speeds Total
Km/Hr
H/R bpm
Heavyweight
18 Doug Dart Cameo Moon River 1 (BC) 4:46:00 18.0, 15.6 16.78 42, 48, 47 (Avg:47)
7 Dan Winkel Shardell Azeem 1 4:46:00 17.9, 15.7 16.78 37, 46, 53 (Avg:49)
28 Chris Nichols Bashan Memphis 3 6:01:00 15.5, 11.5 13.30 34, 42, 47 (Avg:44)
9 Robyn Pembroke Mt Eerwah Romonous 4 7:00:00 13.0, 10.1 11.43 43, 45, 47 (Avg:46)
19 Ben Herbert Galifrey Cannon 5 7:07:00 11.5, 10.9 11.24 35, 50, 54 (Avg:52)
13 Paul Roosen Cairo's Gem 6 7:18:00 10.7, 11.1 10.96 33, 40, 45 (Avg:42)
24 Chris Holden True Sensie 7 7:38:00 10.7, 10.2 10.48 35, 37, 52 (Avg:44)
50 Mark Nimon 77 Cent 8 7:49:00 11.7, 9.0 10.23 37, 40, 39 (Avg:39)
8 Dan Cook Limerick's Illusion Lame L2 0:00:00 15.5, 11.5 - 35, 51, 56 (Avg:53)
22 Kristie Crothers Meraldon Safina Withdrawn L2 0:00:00 - - 33, 39, 48 (Avg:43)
47 Jagaran Hale Merlin Lame L2 0:00:00 17.0, 13.9 - 31, 41, 49 (Avg:45)
Middleweight
35 Natasha Willemse Hillbrae Alec 1 (BC) 4:30:00 19.3, 16.4 17.78 34, 45, 52 (Avg:48)
1 Tanya Trevarthen Manet Ibn Rashan 2 4:56:00 16.9, 15.5 16.22 38, 50, 49 (Avg:49)
39 Sasha Laws-King Heathfield's Flashrani 3 5:19:00 15.6, 14.4 15.05 36, 44, 43 (Avg:43)
2 Adam Garvin Simeon Shovan 4 6:05:00 13.1, 13.1 13.15 35, 51, 54 (Avg:52)
4 Anna Gibson Magic Glenn Gazelle 5 6:11:00 13.1, 12.6 12.94 39, 46, 53 (Avg:49)
3 Amanda Wilson Magic Glenn Avelina 5 6:11:00 13.1, 12.6 12.94 40, 50, 51 (Avg:50)
16 Sue Gurtner Cedarton Achak Abornazine 7 7:02:00 12.4, 10.4 11.37 30, 44, 60 (Avg:52)
17 Gwen Bartolo Haaris 8 7:04:00 12.9, 10.0 11.32 40, 44, 45 (Avg:44)
20 Gabriel Ramos Shazane 9 7:07:00 11.5, 10.9 11.24 39, 49, 50 (Avg:49)
27 Jackie Gilks Geisha Girl 10 7:10:00 11.4, 10.8 11.16 41, 49, 50 (Avg:49)
43 Jacki Armstrong Willojack El General Joe 11 7:47:00 11.8, 9.0 10.28 36, 47, 39 (Avg:43)
23 Kerrie Crothers Kalkadoon Athena Lame L2 0:00:00 9.4, 239.9 - 36, 39, 42 (Avg:40)
10 Michelle Goudge Mt Eerwah Solomon Heart Rate L2 0:00:00 13.0, 10.1 - 37, 51, 70 (Avg:60)
49 Emma Hymas Abbeywood Where It's At Lame L2 0:00:00 11.7, 9.0 - 31, 45, 44 (Avg:44)
40 Kerrie McAuliffe Ry-Naura Zanardi Lame L2 0:00:00 17.7, 14.9 - 30, 44, 52 (Avg:48)
46 Jo Barsby Jamaz Amir Lame L1 0:00:00 13.0 - 41, 43 (Avg:43)
31 Brenda Davy Bashan Kayla Withdrawn L1 0:00:00 - - 34, 38 (Avg:38)
42 Holly Destefani Cherox Kariim Lame L1 0:00:00 12.9 - 34, 47 (Avg:47)
Lightweight
36 Alyce Capek Gums Kawielie 1 4:30:00 19.3, 16.4 17.78 35, 48, 60 (Avg:54)
6 Karen Winkel Ranek Boz 2 4:46:00 17.9, 15.7 16.78 38, 55, 54 (Avg:54)
45 Leah Begley Niarla Elia Shaklan 3 (BC) 4:50:00 18.0, 15.2 16.55 42, 47, 45 (Avg:46)
48 Bianca Porter Phox KEI 4 5:13:00 16.9, 14.0 15.34 43, 47, 50 (Avg:48)
25 Jane Fisher Shanzee 5 5:19:00 18.0, 12.9 15.05 37, 50, 53 (Avg:51)
34 Anne Hollindale Pearl Grey 6 6:05:00 13.1, 13.1 13.15 38, 38, 49 (Avg:43)
21 Pip Lillyman Zenith Park Shiloh 7 6:51:00 12.9, 10.6 11.68 31, 48, 51 (Avg:49)
26 Leigh Rich Leondon Maritz 8 7:10:00 11.4, 10.8 11.16 34, 47, 45 (Avg:46)
14 Janelle Roosen Kinder Surprise Silkk 9 7:18:00 10.7, 11.1 10.96 31, 35, 38 (Avg:36)
15 Victoria Clarke Milton 10 7:53:00 10.4, 9.8 10.15 33, 48, 47 (Avg:47)
12 Adriana Sardoni Willowvale Sirahh 10 7:53:00 10.4, 9.8 10.15 38, 40, 46 (Avg:43)
38 Jess Ashman Sur'een Al Naa'sit 12 8:30:00 10.5, 8.4 9.41 37, 52, 59 (Avg:55)
37 Christal Rizk The Terminator Lame L2 0:00:00 10.5, 8.5 - 37, 51, 52 (Avg:51)
11 Alexandra Toft Sugarplum te Metabolics moderate L1 0:00:00 53.3 - 34, 44 (Avg:44)
Junior
44 Darcy Begley Shinto 1 (BC) 4:50:00 18.0, 15.2 16.55 33, 44, 46 (Avg:45)
29 Christina Simpson Agape Evezra 2 6:02:00 16.1, 11.2 13.26 35, 48, 55 (Avg:51)
41 Jayd Sansucie Lavender Park Maatisse 3 7:02:00 12.4, 10.4 11.37 45, 47, 54 (Avg:50)
32 Jazzy Maher Bashan Silver Nadeer 4 7:08:00 12.1, 10.4 11.21 34, 42, 45 (Avg:43)
30 Mel Simpson Storm 4 7:08:00 12.1, 10.4 11.21 34, 44, 47 (Avg:45)
33 Maeve Paten Gheerulla Aspen Lame L2 0:00:00 12.1, 10.4 - 40, 43, 46 (Avg:44)
5 Gemma Sutcliffe Gheerulla Carley Lame L2 0:00:00 13.1, 12.6 - 37, 41, 42 (Avg:41)